Time;durP1;ratioP1;P1;durP2;ratioP2;P2;SDS_P1;SDS_P2;PMS_P1;PMS_P2;Temp;Humidity;BMP_temperature;BMP_pressure;BME280_temperature;BME280_humidity;BME280_pressure;Samples;Min_cycle;Max_cycle;Signal;HPM_P1;HPM_P2
2023/07/20 00:01:45;;;;;;;3.47;2.33;;;20.50;99.90;;;;;;4139137;28;20554;-59
2023/07/20 00:03:54;;;;;;;2.30;1.77;;;20.40;99.90;;;;;;4137923;28;20501;-59
2023/07/20 00:05:55;;;;;;;2.33;1.55;;;20.50;99.90;;;;;;4154781;28;20037;-59
2023/07/20 00:07:56;;;;;;;3.13;1.90;;;20.50;99.90;;;;;;4156259;28;20099;-59
2023/07/20 00:09:57;;;;;;;2.47;1.63;;;20.50;99.90;;;;;;4184286;28;20055;-62
2023/07/20 00:12:00;;;;;;;3.72;2.30;;;20.50;99.90;;;;;;4175102;28;20037;-60
2023/07/20 00:14:00;;;;;;;3.90;1.90;;;20.50;99.90;;;;;;4165527;28;20044;-59
2023/07/20 00:16:01;;;;;;;3.72;2.28;;;20.40;99.90;;;;;;4173028;28;20503;-59
2023/07/20 00:18:01;;;;;;;3.33;2.00;;;20.40;99.90;;;;;;4178227;28;20427;-59
2023/07/20 00:20:05;;;;;;;4.82;2.00;;;20.40;99.90;;;;;;4185093;28;20021;-59
2023/07/20 00:22:05;;;;;;;3.97;2.25;;;20.40;99.90;;;;;;4157326;28;20038;-59
2023/07/20 00:24:06;;;;;;;3.55;2.22;;;20.40;99.90;;;;;;4172039;28;20029;-59
2023/07/20 00:26:06;;;;;;;3.13;1.83;;;20.40;99.90;;;;;;4164149;28;20036;-59
2023/07/20 00:28:07;;;;;;;3.72;2.05;;;20.40;99.90;;;;;;4163429;28;20143;-59
2023/07/20 00:30:08;;;;;;;4.10;2.15;;;20.50;99.90;;;;;;4177139;28;20486;-59
2023/07/20 00:32:09;;;;;;;2.63;1.92;;;20.50;99.90;;;;;;4180708;28;20371;-59
2023/07/20 00:34:09;;;;;;;2.30;1.80;;;20.40;99.90;;;;;;4176968;28;20036;-59
2023/07/20 00:36:10;;;;;;;3.47;1.90;;;20.50;99.90;;;;;;4171811;28;20039;-59
2023/07/20 00:38:11;;;;;;;3.63;2.20;;;20.50;99.90;;;;;;4177055;28;21064;-59
2023/07/20 00:40:12;;;;;;;2.92;2.13;;;20.50;99.90;;;;;;4146409;28;20132;-60
2023/07/20 00:42:12;;;;;;;2.70;2.08;;;20.50;99.90;;;;;;4168347;28;20057;-60
2023/07/20 00:44:13;;;;;;;2.63;1.98;;;20.50;99.90;;;;;;4171754;28;20041;-60
2023/07/20 00:46:14;;;;;;;3.00;1.80;;;20.40;99.90;;;;;;4166774;28;20132;-62
2023/07/20 00:48:14;;;;;;;4.50;2.05;;;20.50;99.90;;;;;;4169848;28;20048;-60
2023/07/20 00:50:16;;;;;;;3.28;2.05;;;20.40;99.90;;;;;;4168998;28;20037;-59
2023/07/20 00:52:18;;;;;;;5.00;2.58;;;20.40;99.90;;;;;;4169175;28;20075;-59
2023/07/20 00:54:19;;;;;;;2.50;2.03;;;20.40;99.90;;;;;;4168881;28;20052;-59
2023/07/20 00:56:19;;;;;;;3.10;2.10;;;20.40;99.90;;;;;;4168336;28;20033;-59
2023/07/20 00:58:20;;;;;;;3.05;2.22;;;20.30;99.90;;;;;;4167414;28;20033;-59
2023/07/20 01:00:21;;;;;;;3.58;2.30;;;20.30;99.90;;;;;;4167086;28;20040;-59
2023/07/20 01:02:21;;;;;;;4.30;2.50;;;20.30;99.90;;;;;;4167926;28;20032;-59
2023/07/20 01:04:22;;;;;;;3.35;2.30;;;20.20;99.90;;;;;;4169515;28;20099;-59
2023/07/20 01:06:46;;;;;;;2.47;2.03;;;20.20;99.90;;;;;;4168533;28;20099;-59
2023/07/20 01:09:10;;;;;;;5.60;2.70;;;20.10;99.90;;;;;;4166720;28;20033;-59
2023/07/20 01:11:40;;;;;;;3.40;2.65;;;20.00;99.90;;;;;;4165178;28;20037;-59
2023/07/20 01:13:41;;;;;;;3.70;2.70;;;19.90;99.90;;;;;;4164419;28;20098;-59
2023/07/20 01:15:41;;;;;;;4.53;2.60;;;20.00;99.90;;;;;;4172057;28;20044;-59
2023/07/20 01:17:42;;;;;;;7.38;2.90;;;19.90;99.90;;;;;;4170796;28;20036;-61
2023/07/20 01:19:42;;;;;;;5.18;2.92;;;19.90;99.90;;;;;;4167058;28;20026;-60
2023/07/20 01:21:56;;;;;;;5.32;2.97;;;19.80;99.90;;;;;;4169037;28;20726;-60
2023/07/20 01:24:24;;;;;;;4.60;2.65;;;19.70;99.90;;;;;;4170696;28;20481;-61
2023/07/20 01:26:45;;;;;;;6.70;3.15;;;19.70;99.90;;;;;;4170359;28;20025;-60
2023/07/20 01:28:56;;;;;;;3.90;2.60;;;19.60;99.90;;;;;;4146677;28;20380;-61
2023/07/20 01:30:57;;;;;;;4.30;3.20;;;19.60;99.90;;;;;;4153135;28;20038;-61
2023/07/20 01:32:58;;;;;;;3.92;2.60;;;19.60;99.90;;;;;;4164765;28;20424;-61
2023/07/20 01:35:01;;;;;;;5.15;2.58;;;19.50;99.90;;;;;;4178060;28;20037;-62
2023/07/20 01:37:03;;;;;;;6.70;3.70;;;19.50;99.90;;;;;;4157173;28;20037;-61
2023/07/20 01:39:05;;;;;;;5.20;3.22;;;19.50;99.90;;;;;;4183846;28;20078;-61
2023/07/20 01:41:06;;;;;;;6.53;3.65;;;19.40;99.90;;;;;;4168318;28;20041;-61
2023/07/20 01:43:07;;;;;;;4.82;3.40;;;19.50;99.90;;;;;;4165290;28;20029;-61
2023/07/20 01:45:08;;;;;;;5.78;3.50;;;19.40;99.90;;;;;;4173569;28;20050;-61
2023/07/20 01:47:08;;;;;;;4.45;3.13;;;19.50;99.90;;;;;;4155195;28;20029;-60
2023/07/20 01:49:09;;;;;;;4.80;3.85;;;19.50;99.90;;;;;;4163968;28;20108;-60
2023/07/20 01:51:10;;;;;;;5.18;3.15;;;19.40;99.90;;;;;;4157471;28;20548;-60
2023/07/20 01:53:11;;;;;;;5.90;3.17;;;19.40;99.90;;;;;;4151862;28;20037;-61
2023/07/20 01:55:11;;;;;;;4.53;2.80;;;19.40;99.90;;;;;;4154872;28;20088;-63
2023/07/20 01:57:12;;;;;;;4.05;2.80;;;19.40;99.90;;;;;;4155530;28;20040;-61
2023/07/20 01:59:13;;;;;;;5.78;2.45;;;19.50;99.90;;;;;;4150133;28;20116;-60
2023/07/20 02:01:13;;;;;;;4.55;3.13;;;19.50;99.90;;;;;;4150898;28;20079;-61
2023/07/20 02:03:14;;;;;;;6.28;3.08;;;19.50;99.90;;;;;;4149083;28;20060;-60
2023/07/20 02:05:14;;;;;;;5.38;3.17;;;19.50;99.90;;;;;;4150148;28;20029;-60
2023/07/20 02:07:15;;;;;;;4.05;2.92;;;19.50;99.90;;;;;;4156287;28;20122;-63
2023/07/20 02:09:15;;;;;;;5.43;2.92;;;19.50;99.90;;;;;;4160291;28;20400;-61
2023/07/20 02:11:16;;;;;;;5.72;2.75;;;19.50;99.90;;;;;;4159739;28;20042;-61
2023/07/20 02:13:17;;;;;;;7.03;3.97;;;19.60;99.90;;;;;;4160105;28;20361;-61
2023/07/20 02:15:18;;;;;;;4.57;2.88;;;19.60;99.90;;;;;;4155683;28;20036;-60
2023/07/20 02:17:19;;;;;;;6.32;3.85;;;19.60;99.90;;;;;;4156380;28;20042;-60
2023/07/20 02:19:21;;;;;;;6.07;3.17;;;19.60;99.90;;;;;;4159507;28;20026;-61
2023/07/20 02:21:21;;;;;;;3.53;2.63;;;19.60;99.90;;;;;;4158152;28;20373;-60
2023/07/20 02:23:22;;;;;;;4.65;3.05;;;19.60;99.90;;;;;;4160053;28;20030;-60
2023/07/20 02:25:22;;;;;;;5.18;3.22;;;19.60;99.90;;;;;;4155922;28;20435;-60
2023/07/20 02:27:23;;;;;;;5.50;3.50;;;19.60;99.90;;;;;;4157691;28;20038;-60
2023/07/20 02:29:24;;;;;;;5.03;3.30;;;19.60;99.90;;;;;;4157445;28;20045;-60
2023/07/20 02:31:24;;;;;;;3.75;2.53;;;19.70;99.90;;;;;;4157030;28;20022;-60
2023/07/20 02:33:25;;;;;;;4.50;3.17;;;19.70;99.90;;;;;;4151848;28;20049;-60
2023/07/20 02:35:26;;;;;;;4.32;3.28;;;19.70;99.90;;;;;;4150673;28;20036;-60
2023/07/20 02:37:26;;;;;;;3.88;2.88;;;19.70;99.90;;;;;;4156527;28;20026;-61
2023/07/20 02:39:27;;;;;;;4.47;3.58;;;19.70;99.90;;;;;;4149855;28;20025;-60
2023/07/20 02:41:28;;;;;;;5.25;3.47;;;19.80;99.90;;;;;;4152939;28;20048;-60
2023/07/20 02:43:29;;;;;;;5.18;3.45;;;19.80;99.90;;;;;;4158408;28;20026;-60
2023/07/20 02:45:30;;;;;;;6.53;3.22;;;19.80;99.90;;;;;;4168357;28;20484;-62
2023/07/20 02:47:31;;;;;;;8.82;3.53;;;19.80;99.90;;;;;;4170145;28;20049;-60
2023/07/20 02:49:32;;;;;;;4.93;3.05;;;19.80;99.90;;;;;;4175507;28;20373;-60
2023/07/20 02:51:33;;;;;;;4.68;2.92;;;19.90;99.90;;;;;;4173474;28;20021;-60
2023/07/20 02:53:33;;;;;;;6.35;4.30;;;19.80;99.90;;;;;;4179002;28;20156;-60
2023/07/20 02:55:34;;;;;;;5.47;3.53;;;19.80;99.90;;;;;;4176563;28;20037;-60
2023/07/20 02:57:35;;;;;;;6.22;3.13;;;19.80;99.90;;;;;;4178466;28;20071;-60
2023/07/20 02:59:35;;;;;;;4.35;3.38;;;19.70;99.90;;;;;;4178226;28;20064;-60
2023/07/20 03:01:36;;;;;;;4.75;3.17;;;19.80;99.90;;;;;;4156334;28;20044;-60
2023/07/20 03:03:38;;;;;;;5.00;3.60;;;19.80;99.90;;;;;;4178360;28;20067;-60
2023/07/20 03:05:41;;;;;;;5.38;3.45;;;19.70;99.90;;;;;;4176079;28;20032;-60
2023/07/20 03:07:43;;;;;;;;;;;19.70;99.90;;;;;;4178431;28;20048;-60
2023/07/20 03:09:44;;;;;;;4.53;3.20;;;19.70;99.90;;;;;;4161552;28;19917;-60
2023/07/20 03:11:44;;;;;;;5.75;3.42;;;19.70;99.90;;;;;;4176878;28;20041;-60
2023/07/20 03:13:46;;;;;;;4.53;3.25;;;19.70;99.90;;;;;;4177878;28;20068;-60
2023/07/20 03:15:46;;;;;;;6.30;4.32;;;19.70;99.90;;;;;;4170057;28;20041;-60
2023/07/20 03:17:47;;;;;;;6.43;3.92;;;19.60;99.90;;;;;;4176378;28;20396;-64
2023/07/20 03:19:47;;;;;;;5.82;3.80;;;19.60;99.90;;;;;;4179351;28;20029;-61
2023/07/20 03:21:48;;;;;;;6.53;4.03;;;19.60;99.90;;;;;;4176809;28;20052;-60
2023/07/20 03:23:49;;;;;;;5.88;4.00;;;19.60;99.90;;;;;;4179383;28;20120;-61
2023/07/20 03:25:49;;;;;;;5.88;4.22;;;19.50;99.90;;;;;;4159393;28;20401;-61
2023/07/20 03:27:50;;;;;;;6.55;4.00;;;19.50;99.90;;;;;;4175462;28;20480;-61
2023/07/20 03:29:50;;;;;;;7.68;4.75;;;19.40;99.90;;;;;;4177508;28;20053;-60
2023/07/20 03:31:51;;;;;;;6.68;4.82;;;19.50;99.90;;;;;;4168517;28;20535;-60
2023/07/20 03:33:52;;;;;;;7.95;4.57;;;19.40;99.90;;;;;;4172044;28;20502;-61
2023/07/20 03:35:52;;;;;;;9.55;4.55;;;19.30;99.90;;;;;;4175848;28;20131;-60
2023/07/20 03:37:53;;;;;;;10.05;5.10;;;19.30;99.90;;;;;;4177087;28;20396;-60
2023/07/20 03:39:54;;;;;;;6.10;4.00;;;19.20;99.90;;;;;;4178780;28;20450;-60
2023/07/20 03:41:54;;;;;;;9.63;4.38;;;19.20;99.90;;;;;;4168873;28;20029;-60
2023/07/20 03:43:55;;;;;;;7.68;4.45;;;19.20;99.90;;;;;;4175142;28;20061;-60
2023/07/20 03:45:56;;;;;;;6.32;4.50;;;19.20;99.90;;;;;;4171743;28;20044;-60
2023/07/20 03:47:57;;;;;;;6.07;4.05;;;19.20;99.90;;;;;;4177320;28;20112;-60
2023/07/20 03:49:58;;;;;;;6.55;4.38;;;19.20;99.90;;;;;;4161480;28;20488;-60
2023/07/20 03:51:58;;;;;;;10.07;4.90;;;19.20;99.90;;;;;;4167182;28;20029;-60
2023/07/20 03:53:59;;;;;;;13.38;5.03;;;19.20;99.90;;;;;;4162464;28;20053;-60
2023/07/20 03:56:00;;;;;;;6.22;4.47;;;19.20;99.90;;;;;;4156961;28;20121;-60
2023/07/20 03:58:01;;;;;;;7.00;4.55;;;19.20;99.90;;;;;;4155247;28;20113;-60
2023/07/20 04:00:03;;;;;;;7.22;4.45;;;19.20;99.90;;;;;;4158566;28;20040;-62
2023/07/20 04:02:05;;;;;;;6.10;4.35;;;19.20;99.90;;;;;;4156109;28;20037;-60
2023/07/20 04:04:07;;;;;;;6.72;4.47;;;19.20;99.90;;;;;;4160765;28;20033;-60
2023/07/20 04:06:08;;;;;;;7.78;4.82;;;19.20;99.90;;;;;;4154664;28;20437;-60
2023/07/20 04:08:10;;;;;;;6.80;4.97;;;19.20;99.90;;;;;;4160335;28;20037;-60
2023/07/20 04:10:11;;;;;;;6.05;4.03;;;19.20;99.90;;;;;;4154560;28;20037;-61
2023/07/20 04:12:12;;;;;;;9.77;4.78;;;19.20;99.90;;;;;;4160961;28;20073;-60
2023/07/20 04:14:13;;;;;;;8.38;4.80;;;19.20;99.90;;;;;;4160844;28;20065;-60
2023/07/20 04:16:13;;;;;;;5.47;4.40;;;19.20;99.90;;;;;;4151108;28;20424;-60
2023/07/20 04:18:14;;;;;;;7.28;4.45;;;19.20;99.90;;;;;;4161335;28;20029;-60
2023/07/20 04:20:14;;;;;;;4.70;3.97;;;19.20;99.90;;;;;;4160803;28;20036;-60
2023/07/20 04:22:15;;;;;;;6.75;4.82;;;19.30;99.90;;;;;;4159258;28;20029;-60
2023/07/20 04:24:16;;;;;;;9.07;5.28;;;19.30;99.90;;;;;;4161503;28;20036;-60
2023/07/20 04:26:16;;;;;;;7.47;3.80;;;19.30;99.90;;;;;;4156933;28;20033;-60
2023/07/20 04:28:17;;;;;;;4.70;4.10;;;19.30;99.90;;;;;;4158812;28;20034;-60
2023/07/20 04:30:20;;;;;;;5.43;3.90;;;19.30;99.90;;;;;;4156997;28;20048;-64
2023/07/20 04:32:21;;;;;;;6.07;4.18;;;19.30;99.90;;;;;;4157475;28;20037;-60
2023/07/20 04:34:21;;;;;;;7.55;5.57;;;19.30;99.90;;;;;;4160043;28;20049;-60
2023/07/20 04:36:22;;;;;;;7.80;5.53;;;19.30;99.90;;;;;;4156650;28;20034;-60
2023/07/20 04:38:23;;;;;;;7.03;4.97;;;19.30;99.90;;;;;;4157919;28;20107;-60
2023/07/20 04:40:24;;;;;;;6.93;4.47;;;19.40;99.90;;;;;;4160803;28;20107;-60
2023/07/20 04:42:25;;;;;;;5.70;4.82;;;19.40;99.90;;;;;;4161346;28;20530;-60
2023/07/20 04:44:25;;;;;;;7.93;5.68;;;19.30;99.90;;;;;;4170062;28;20385;-60
2023/07/20 04:46:26;;;;;;;10.57;7.40;;;19.40;99.90;;;;;;4172149;28;20049;-60
2023/07/20 04:48:26;;;;;;;7.78;5.78;;;19.40;99.90;;;;;;4176493;28;20098;-60
2023/07/20 04:50:27;;;;;;;7.32;6.07;;;19.40;99.90;;;;;;4176787;28;20043;-60
2023/07/20 04:52:28;;;;;;;7.15;5.07;;;19.30;99.90;;;;;;4177250;28;20037;-60
2023/07/20 04:54:28;;;;;;;12.38;6.80;;;19.40;99.90;;;;;;4178104;28;20041;-60
2023/07/20 04:56:29;;;;;;;6.43;5.07;;;19.30;99.90;;;;;;4172777;28;20033;-60
2023/07/20 04:58:29;;;;;;;7.93;5.75;;;19.30;99.90;;;;;;4175816;28;20494;-60
2023/07/20 05:00:31;;;;;;;8.80;5.70;;;19.30;99.90;;;;;;4173445;28;20041;-60
2023/07/20 05:02:32;;;;;;;8.77;5.72;;;19.30;99.90;;;;;;4167661;28;20038;-62
2023/07/20 05:04:33;;;;;;;7.40;5.38;;;19.30;99.90;;;;;;4177821;28;20090;-60
2023/07/20 05:06:33;;;;;;;6.03;4.10;;;19.30;99.90;;;;;;4171311;28;20523;-61
2023/07/20 05:08:34;;;;;;;7.50;5.28;;;19.30;99.90;;;;;;4177062;28;20039;-60
2023/07/20 05:10:35;;;;;;;6.05;4.85;;;19.30;99.90;;;;;;4165274;28;20036;-60
2023/07/20 05:12:35;;;;;;;7.05;6.07;;;19.30;99.90;;;;;;4175580;28;20492;-60
2023/07/20 05:14:36;;;;;;;6.13;4.93;;;19.20;99.90;;;;;;4165261;28;20036;-61
2023/07/20 05:16:37;;;;;;;7.55;5.25;;;19.20;99.90;;;;;;4166249;28;20043;-60
2023/07/20 05:18:37;;;;;;;8.70;4.72;;;19.20;99.90;;;;;;4177058;28;20040;-60
2023/07/20 05:20:38;;;;;;;5.85;4.05;;;19.20;99.90;;;;;;4175505;28;20112;-60
2023/07/20 05:22:39;;;;;;;6.10;4.75;;;19.20;99.90;;;;;;4167208;28;20102;-60
2023/07/20 05:24:40;;;;;;;6.20;4.65;;;19.20;99.90;;;;;;4147378;28;20033;-60
2023/07/20 05:26:40;;;;;;;7.53;5.07;;;19.30;99.90;;;;;;4167766;28;20127;-60
2023/07/20 05:28:41;;;;;;;5.90;5.25;;;19.20;99.90;;;;;;4165940;28;20040;-60
2023/07/20 05:30:41;;;;;;;4.88;4.03;;;19.20;99.90;;;;;;4172744;28;20032;-60
2023/07/20 05:32:42;;;;;;;5.88;4.53;;;19.20;99.90;;;;;;4158070;28;20033;-60
2023/07/20 05:34:43;;;;;;;3.72;3.30;;;19.10;99.90;;;;;;4176858;28;20033;-60
2023/07/20 05:36:43;;;;;;;5.63;4.22;;;19.10;99.90;;;;;;4170037;28;20104;-60
2023/07/20 05:38:44;;;;;;;7.93;3.65;;;19.10;99.90;;;;;;4175867;28;20096;-60
2023/07/20 05:40:45;;;;;;;4.45;3.47;;;19.10;99.90;;;;;;4167379;28;20029;-60
2023/07/20 05:42:51;;;;;;;5.75;3.72;;;19.10;99.90;;;;;;4176858;28;20480;-60
2023/07/20 05:44:52;;;;;;;4.18;3.58;;;19.20;99.90;;;;;;4151670;28;20092;-61
2023/07/20 05:46:53;;;;;;;4.10;3.00;;;19.20;99.90;;;;;;4148438;28;20037;-61
2023/07/20 05:48:53;;;;;;;6.03;3.33;;;19.20;99.90;;;;;;4160439;28;20112;-61
2023/07/20 05:50:54;;;;;;;4.75;3.15;;;19.20;99.90;;;;;;4159294;28;20030;-60
2023/07/20 05:52:55;;;;;;;5.03;3.08;;;19.20;99.90;;;;;;4160513;28;20037;-60
2023/07/20 05:54:55;;;;;;;5.35;3.80;;;19.30;99.90;;;;;;4158501;28;20124;-60
2023/07/20 05:56:56;;;;;;;3.63;2.55;;;19.30;99.90;;;;;;4150830;28;20035;-60
2023/07/20 05:58:57;;;;;;;4.03;3.28;;;19.30;99.90;;;;;;4154753;28;20291;-60
2023/07/20 06:00:58;;;;;;;3.88;3.10;;;19.30;99.90;;;;;;4154971;28;20104;-60
2023/07/20 06:02:58;;;;;;;5.38;3.33;;;19.30;99.90;;;;;;4160578;28;20038;-60
2023/07/20 06:04:59;;;;;;;4.53;2.70;;;19.30;99.90;;;;;;4160675;28;20122;-60
2023/07/20 06:06:59;;;;;;;3.97;2.63;;;19.30;99.90;;;;;;4158378;28;20045;-60
2023/07/20 06:09:03;;;;;;;3.25;2.55;;;19.50;99.90;;;;;;4159604;28;20465;-60
2023/07/20 06:11:04;;;;;;;4.35;2.92;;;19.50;99.90;;;;;;4159294;28;20124;-60
2023/07/20 06:13:05;;;;;;;4.72;3.03;;;19.60;99.90;;;;;;4159098;28;20538;-60
2023/07/20 06:15:23;;;;;;;4.50;2.38;;;19.70;99.90;;;;;;4157934;28;20064;-60
2023/07/20 06:17:24;;;;;;;4.40;3.03;;;19.70;99.90;;;;;;4156411;28;20056;-60
2023/07/20 06:19:24;;;;;;;5.15;2.70;;;19.70;99.90;;;;;;4160591;28;20026;-60
2023/07/20 06:21:25;;;;;;;2.33;2.05;;;19.70;99.90;;;;;;4155233;28;20049;-60
2023/07/20 06:23:25;;;;;;;3.33;2.70;;;19.70;99.90;;;;;;4150019;28;20057;-60
2023/07/20 06:25:26;;;;;;;7.88;3.15;;;19.80;99.90;;;;;;4150568;28;20502;-60
2023/07/20 06:27:27;;;;;;;3.95;2.67;;;19.90;99.90;;;;;;4153627;28;20044;-59
2023/07/20 06:29:27;;;;;;;3.42;2.25;;;20.00;99.90;;;;;;4163217;28;20061;-60
2023/07/20 06:31:28;;;;;;;2.28;2.08;;;20.10;99.90;;;;;;4164120;28;20029;-59
2023/07/20 06:33:28;;;;;;;2.83;2.38;;;20.20;99.90;;;;;;4166591;28;20037;-60
2023/07/20 06:35:29;;;;;;;4.82;2.70;;;20.40;99.90;;;;;;4173594;28;20026;-59
2023/07/20 06:37:30;;;;;;;2.42;1.52;;;20.60;99.90;;;;;;4164503;28;20510;-59
2023/07/20 06:39:30;;;;;;;2.45;1.63;;;20.80;99.90;;;;;;4154279;28;20029;-60
2023/07/20 06:41:31;;;;;;;1.70;1.45;;;21.20;99.90;;;;;;4150510;28;20030;-60
2023/07/20 06:43:31;;;;;;;3.15;1.67;;;21.50;99.90;;;;;;4156804;28;20052;-60
2023/07/20 06:45:32;;;;;;;1.30;1.20;;;21.80;99.90;;;;;;4170506;28;20026;-60
2023/07/20 06:47:32;;;;;;;1.75;1.05;;;22.10;99.90;;;;;;4165275;28;20037;-60
2023/07/20 06:49:33;;;;;;;1.73;1.08;;;22.30;99.90;;;;;;4156552;28;20042;-60
2023/07/20 06:51:34;;;;;;;1.85;1.08;;;22.50;99.90;;;;;;4157563;28;20026;-64
2023/07/20 06:53:34;;;;;;;1.38;0.90;;;22.70;99.90;;;;;;4155912;28;20116;-60
2023/07/20 06:55:35;;;;;;;1.15;0.63;;;22.80;99.90;;;;;;4170341;28;20033;-60
2023/07/20 06:57:36;;;;;;;1.33;0.82;;;22.90;99.90;;;;;;4168351;28;20029;-60
2023/07/20 06:59:36;;;;;;;0.68;0.60;;;23.10;99.90;;;;;;4166397;28;20053;-61
2023/07/20 07:01:37;;;;;;;1.13;0.90;;;23.10;99.90;;;;;;4166785;28;20035;-61
2023/07/20 07:03:37;;;;;;;1.85;0.70;;;23.00;99.90;;;;;;4165502;28;20029;-61
2023/07/20 07:05:38;;;;;;;1.15;0.80;;;22.90;99.90;;;;;;4164329;28;20037;-60
2023/07/20 07:07:39;;;;;;;0.85;0.80;;;22.90;99.90;;;;;;4168576;28;20082;-60
2023/07/20 07:09:39;;;;;;;2.28;1.00;;;22.80;99.90;;;;;;4165790;28;20516;-60
2023/07/20 07:11:40;;;;;;;0.80;0.73;;;22.80;99.90;;;;;;4153301;28;20484;-60
2023/07/20 07:13:41;;;;;;;1.13;0.73;;;22.70;99.90;;;;;;4159397;28;20033;-60
2023/07/20 07:15:42;;;;;;;1.00;0.90;;;22.70;99.90;;;;;;4168711;28;20060;-60
2023/07/20 07:17:43;;;;;;;1.58;0.95;;;22.60;99.90;;;;;;4165278;28;20034;-60
2023/07/20 07:19:44;;;;;;;1.10;1.00;;;22.60;99.90;;;;;;4156321;28;20093;-61
2023/07/20 07:21:44;;;;;;;0.77;0.73;;;22.50;99.90;;;;;;4152819;28;20033;-60
2023/07/20 07:23:46;;;;;;;1.00;0.80;;;22.50;99.90;;;;;;4155006;28;20026;-60
2023/07/20 07:25:47;;;;;;;1.08;0.80;;;22.50;99.90;;;;;;4159869;28;20030;-60
2023/07/20 07:27:48;;;;;;;1.10;0.80;;;22.60;99.90;;;;;;4154059;28;20477;-60
2023/07/20 07:29:49;;;;;;;0.73;0.60;;;22.60;99.90;;;;;;4172208;28;20035;-60
2023/07/20 07:31:49;;;;;;;0.63;0.60;;;22.70;99.90;;;;;;4140988;28;20236;-61
2023/07/20 07:33:50;;;;;;;1.92;0.80;;;22.70;99.90;;;;;;4162009;28;20064;-60
2023/07/20 07:35:52;;;;;;;1.55;0.60;;;22.80;99.90;;;;;;4160240;28;20456;-60
2023/07/20 07:37:52;;;;;;;1.00;0.70;;;22.90;99.90;;;;;;4143145;28;20034;-60
2023/07/20 07:39:53;;;;;;;1.05;1.00;;;23.00;99.90;;;;;;4156693;28;20025;-64
2023/07/20 07:41:54;;;;;;;0.65;0.52;;;23.10;99.90;;;;;;4155520;28;20492;-62
2023/07/20 07:43:54;;;;;;;1.63;0.70;;;23.10;99.90;;;;;;4165249;28;20041;-61
2023/07/20 07:45:55;;;;;;;2.90;0.80;;;23.20;99.90;;;;;;4168190;28;20041;-63
2023/07/20 07:47:56;;;;;;;0.73;0.73;;;23.10;99.90;;;;;;4169609;28;20040;-63
2023/07/20 07:49:57;;;;;;;0.45;0.40;;;23.10;99.90;;;;;;4166851;28;20033;-63
2023/07/20 07:51:57;;;;;;;1.25;0.40;;;23.00;99.90;;;;;;4166950;28;20033;-62
2023/07/20 07:53:58;;;;;;;0.43;0.43;;;23.10;99.90;;;;;;4170803;28;20037;-63
2023/07/20 07:55:59;;;;;;;1.60;0.77;;;23.10;99.90;;;;;;4169964;28;20033;-63
2023/07/20 07:58:00;;;;;;;1.30;0.60;;;23.10;99.90;;;;;;4172386;28;20039;-62
2023/07/20 08:00:00;;;;;;;0.88;0.50;;;23.00;99.90;;;;;;4157877;28;20455;-62
2023/07/20 08:02:02;;;;;;;0.80;0.60;;;23.00;99.90;;;;;;4152283;28;20041;-62
2023/07/20 08:04:03;;;;;;;1.50;0.55;;;22.90;99.90;;;;;;4156957;28;20128;-62
2023/07/20 08:06:04;;;;;;;1.00;0.60;;;22.90;99.90;;;;;;4163100;28;20599;-62
2023/07/20 08:08:05;;;;;;;1.38;0.60;;;22.80;99.90;;;;;;4169915;28;20037;-62
2023/07/20 08:10:06;;;;;;;0.75;0.70;;;22.60;99.90;;;;;;4155258;28;20037;-63
2023/07/20 08:12:07;;;;;;;0.95;0.60;;;22.60;99.90;;;;;;4164479;28;20484;-63
2023/07/20 08:14:08;;;;;;;0.60;0.60;;;22.50;99.90;;;;;;4166574;28;20067;-62
2023/07/20 08:16:08;;;;;;;0.90;0.70;;;22.50;99.90;;;;;;4149062;28;20037;-62
2023/07/20 08:18:09;;;;;;;0.98;0.60;;;22.40;99.90;;;;;;4164801;28;20036;-63
2023/07/20 08:20:12;;;;;;;0.73;0.52;;;22.30;99.90;;;;;;4158423;28;20025;-63
2023/07/20 08:22:13;;;;;;;0.60;0.40;;;22.30;99.90;;;;;;4160034;28;20573;-62
2023/07/20 08:24:13;;;;;;;0.70;0.50;;;22.30;99.90;;;;;;4163545;28;20041;-62
2023/07/20 08:26:14;;;;;;;0.30;0.25;;;22.40;99.90;;;;;;4171118;28;20035;-62
2023/07/20 08:28:16;;;;;;;0.63;0.50;;;22.50;99.90;;;;;;4171576;28;20409;-62
2023/07/20 08:30:17;;;;;;;0.98;0.57;;;22.50;99.90;;;;;;4169262;28;20033;-62
2023/07/20 08:32:17;;;;;;;1.35;0.50;;;22.60;99.90;;;;;;4143719;28;20030;-62
2023/07/20 08:34:18;;;;;;;0.80;0.50;;;22.70;99.90;;;;;;4152084;28;20140;-62
2023/07/20 08:36:18;;;;;;;0.60;0.55;;;22.80;99.90;;;;;;4152181;28;20129;-62
2023/07/20 08:38:19;;;;;;;0.52;0.50;;;22.90;99.90;;;;;;4152337;28;20393;-62
2023/07/20 08:40:20;;;;;;;1.25;0.60;;;23.00;99.90;;;;;;4157308;28;20037;-62
2023/07/20 08:42:22;;;;;;;0.35;0.35;;;23.10;99.90;;;;;;4157167;28;20043;-62
2023/07/20 08:44:24;;;;;;;1.75;0.68;;;23.20;99.90;;;;;;4164851;28;20064;-61
2023/07/20 08:46:28;;;;;;;0.40;0.40;;;23.20;99.90;;;;;;4162972;28;20030;-62
2023/07/20 08:48:30;;;;;;;2.70;0.70;;;23.30;99.90;;;;;;4162420;28;20037;-62
2023/07/20 08:50:31;;;;;;;;;;;23.30;99.90;;;;;;4157565;28;20044;-62
2023/07/20 08:52:34;;;;;;;0.68;0.38;;;23.30;99.90;;;;;;4170420;28;20352;-62
2023/07/20 08:54:35;;;;;;;;;;;23.30;99.90;;;;;;4169297;28;20500;-62
2023/07/20 08:56:37;;;;;;;1.08;0.50;;;23.30;99.90;;;;;;4168739;28;19915;-64
2023/07/20 08:58:40;;;;;;;1.30;0.30;;;23.30;99.90;;;;;;4169240;28;20033;-62
2023/07/20 09:00:41;;;;;;;0.85;0.85;;;23.20;99.90;;;;;;4156977;28;20044;-62
2023/07/20 09:02:44;;;;;;;0.63;0.40;;;23.20;99.90;;;;;;4154641;28;20030;-62
2023/07/20 09:04:45;;;;;;;0.82;0.60;;;23.30;99.90;;;;;;4170166;28;20040;-62
2023/07/20 09:06:46;;;;;;;0.50;0.50;;;23.30;99.90;;;;;;4166180;28;20029;-62
2023/07/20 09:08:47;;;;;;;1.23;0.67;;;23.40;99.90;;;;;;4150998;28;20040;-62
2023/07/20 09:10:48;;;;;;;0.60;0.40;;;23.40;99.90;;;;;;4157134;28;20034;-62
2023/07/20 09:12:49;;;;;;;0.77;0.40;;;23.50;99.90;;;;;;4160287;28;20087;-62
2023/07/20 09:14:49;;;;;;;0.65;0.30;;;23.50;99.90;;;;;;4164826;28;20033;-62
2023/07/20 09:16:54;;;;;;;0.38;0.35;;;23.60;99.90;;;;;;4168782;28;20025;-62
2023/07/20 09:18:58;;;;;;;0.40;0.30;;;23.70;99.90;;;;;;4162758;28;20033;-62
2023/07/20 09:21:02;;;;;;;0.52;0.40;;;23.80;99.90;;;;;;4156242;28;20057;-62
2023/07/20 09:23:06;;;;;;;0.40;0.40;;;23.80;99.90;;;;;;4149794;28;20061;-62
2023/07/20 09:25:19;;;;;;;1.20;0.55;;;23.90;99.90;;;;;;4167801;28;20126;-66
2023/07/20 09:27:19;;;;;;;0.85;0.45;;;23.90;99.90;;;;;;4167834;28;20171;-62
2023/07/20 09:29:20;;;;;;;0.47;0.30;;;23.90;99.60;;;;;;4138664;28;20120;-62
2023/07/20 09:31:22;;;;;;;1.80;0.43;;;23.90;99.30;;;;;;4152751;28;20065;-62
2023/07/20 09:33:23;;;;;;;1.13;0.50;;;24.00;99.90;;;;;;4157516;28;20482;-62
2023/07/20 09:35:24;;;;;;;0.50;0.40;;;24.00;99.90;;;;;;4154788;28;20886;-62
2023/07/20 09:37:24;;;;;;;1.45;0.50;;;24.10;99.90;;;;;;4163655;28;20168;-62
2023/07/20 09:39:25;;;;;;;1.17;0.50;;;24.10;99.90;;;;;;4159603;28;20069;-62
2023/07/20 09:41:26;;;;;;;0.52;0.50;;;24.10;99.90;;;;;;4150030;28;20099;-62
2023/07/20 09:43:30;;;;;;;0.32;0.32;;;24.10;99.90;;;;;;4130814;28;21807;-63
2023/07/20 09:45:33;;;;;;;1.30;0.55;;;24.10;99.90;;;;;;4132998;28;20045;-62
2023/07/20 09:47:37;;;;;;;0.28;0.28;;;24.10;99.90;;;;;;4152952;28;20388;-62
2023/07/20 09:49:41;;;;;;;0.85;0.50;;;24.10;99.90;;;;;;4145921;28;20416;-62
2023/07/20 09:51:43;;;;;;;0.38;0.38;;;24.10;99.90;;;;;;4162821;28;20029;-62
2023/07/20 09:53:45;;;;;;;1.70;0.55;;;24.10;99.90;;;;;;4162585;28;20044;-62
2023/07/20 09:55:47;;;;;;;1.05;0.40;;;23.80;96.70;;;;;;4165106;28;20072;-62
2023/07/20 09:57:48;;;;;;;0.65;0.30;;;23.90;99.90;;;;;;4162160;28;20500;-62
2023/07/20 09:59:49;;;;;;;0.95;0.50;;;23.90;99.80;;;;;;4167454;28;20036;-62
2023/07/20 10:01:53;;;;;;;0.65;0.35;;;24.10;99.90;;;;;;4165894;28;20040;-62
2023/07/20 10:03:57;;;;;;;0.52;0.30;;;24.10;99.90;;;;;;4170172;28;20056;-62
2023/07/20 10:06:05;;;;;;;0.77;0.47;;;24.10;99.90;;;;;;4169355;28;20568;-63
2023/07/20 10:08:11;;;;;;;0.20;0.20;;;24.20;97.90;;;;;;4167273;28;20077;-62
2023/07/20 10:10:14;;;;;;;1.67;0.50;;;24.20;98.20;;;;;;4159122;28;20033;-62
2023/07/20 10:12:16;;;;;;;0.47;0.40;;;24.30;97.20;;;;;;4158884;28;20408;-61
2023/07/20 10:14:20;;;;;;;1.48;0.60;;;24.40;99.90;;;;;;4155843;28;20132;-61
2023/07/20 10:16:34;;;;;;;2.95;0.60;;;24.40;99.90;;;;;;4160605;28;20091;-61
2023/07/20 10:18:51;;;;;;;0.85;0.35;;;24.50;99.40;;;;;;4163403;28;20396;-61
2023/07/20 10:20:53;;;;;;;1.65;0.47;;;24.60;99.60;;;;;;4173029;28;20052;-61
2023/07/20 10:22:55;;;;;;;;;;;24.60;99.70;;;;;;4169800;28;20384;-61
2023/07/20 10:24:58;;;;;;;1.25;0.40;;;24.60;98.60;;;;;;4173893;28;19924;-62
2023/07/20 10:26:59;;;;;;;0.32;0.32;;;24.50;98.50;;;;;;4161003;28;20540;-62
2023/07/20 10:29:01;;;;;;;0.90;0.50;;;24.50;96.00;;;;;;4159529;28;20026;-62
2023/07/20 10:31:02;;;;;;;1.10;0.80;;;24.50;98.10;;;;;;4153081;28;20095;-61
2023/07/20 10:33:04;;;;;;;0.40;0.40;;;24.50;99.30;;;;;;4151273;28;20029;-61
2023/07/20 10:35:15;;;;;;;0.95;0.50;;;24.40;95.60;;;;;;4151642;28;20041;-62